sensor_id;sensor_type;location;lat;lon;timestamp;P1;durP1;ratioP1;P2;durP2;ratioP2
14348;SDS011;7258;50.376;8.742;2022-11-15T00:02:00;17.10;;;13.43;;
14348;SDS011;7258;50.376;8.742;2022-11-15T00:04:05;14.37;;;12.87;;
14348;SDS011;7258;50.376;8.742;2022-11-15T00:06:08;16.23;;;13.50;;
14348;SDS011;7258;50.376;8.742;2022-11-15T00:08:12;17.90;;;13.37;;
14348;SDS011;7258;50.376;8.742;2022-11-15T00:10:16;18.03;;;13.20;;
14348;SDS011;7258;50.376;8.742;2022-11-15T00:12:18;17.00;;;13.57;;
14348;SDS011;7258;50.376;8.742;2022-11-15T00:14:21;15.23;;;13.63;;
14348;SDS011;7258;50.376;8.742;2022-11-15T00:16:24;16.00;;;13.97;;
14348;SDS011;7258;50.376;8.742;2022-11-15T00:18:27;15.13;;;13.63;;
14348;SDS011;7258;50.376;8.742;2022-11-15T00:20:31;16.40;;;14.57;;
14348;SDS011;7258;50.376;8.742;2022-11-15T00:22:35;15.53;;;13.70;;
14348;SDS011;7258;50.376;8.742;2022-11-15T00:24:39;15.87;;;14.17;;
14348;SDS011;7258;50.376;8.742;2022-11-15T00:26:42;18.90;;;14.43;;
14348;SDS011;7258;50.376;8.742;2022-11-15T00:28:44;15.67;;;13.70;;
14348;SDS011;7258;50.376;8.742;2022-11-15T00:30:47;14.77;;;13.20;;
14348;SDS011;7258;50.376;8.742;2022-11-15T00:32:50;16.33;;;13.23;;
14348;SDS011;7258;50.376;8.742;2022-11-15T00:34:53;15.93;;;13.50;;
14348;SDS011;7258;50.376;8.742;2022-11-15T00:36:56;15.83;;;13.07;;
14348;SDS011;7258;50.376;8.742;2022-11-15T00:38:59;14.27;;;11.80;;
14348;SDS011;7258;50.376;8.742;2022-11-15T00:41:04;15.07;;;12.27;;
14348;SDS011;7258;50.376;8.742;2022-11-15T00:43:10;16.07;;;12.93;;
14348;SDS011;7258;50.376;8.742;2022-11-15T00:45:13;15.60;;;12.27;;
14348;SDS011;7258;50.376;8.742;2022-11-15T00:47:15;13.97;;;12.50;;
14348;SDS011;7258;50.376;8.742;2022-11-15T00:49:18;14.87;;;12.10;;
14348;SDS011;7258;50.376;8.742;2022-11-15T00:51:21;14.50;;;13.00;;
14348;SDS011;7258;50.376;8.742;2022-11-15T00:53:24;14.93;;;12.30;;
14348;SDS011;7258;50.376;8.742;2022-11-15T00:55:27;13.30;;;11.83;;
14348;SDS011;7258;50.376;8.742;2022-11-15T00:57:31;13.87;;;11.63;;
14348;SDS011;7258;50.376;8.742;2022-11-15T00:59:34;14.97;;;12.20;;
14348;SDS011;7258;50.376;8.742;2022-11-15T01:01:37;13.57;;;11.40;;
14348;SDS011;7258;50.376;8.742;2022-11-15T01:03:40;13.83;;;11.30;;
14348;SDS011;7258;50.376;8.742;2022-11-15T01:05:43;12.73;;;11.20;;
14348;SDS011;7258;50.376;8.742;2022-11-15T01:07:46;12.17;;;10.70;;
14348;SDS011;7258;50.376;8.742;2022-11-15T01:09:49;12.07;;;10.80;;
14348;SDS011;7258;50.376;8.742;2022-11-15T01:11:52;12.30;;;11.03;;
14348;SDS011;7258;50.376;8.742;2022-11-15T01:13:56;12.83;;;11.20;;
14348;SDS011;7258;50.376;8.742;2022-11-15T01:15:59;12.10;;;10.80;;
14348;SDS011;7258;50.376;8.742;2022-11-15T01:18:08;12.90;;;10.60;;
14348;SDS011;7258;50.376;8.742;2022-11-15T01:20:11;12.83;;;11.10;;
14348;SDS011;7258;50.376;8.742;2022-11-15T01:22:14;12.70;;;10.83;;
14348;SDS011;7258;50.376;8.742;2022-11-15T01:24:17;13.57;;;10.50;;
14348;SDS011;7258;50.376;8.742;2022-11-15T01:26:20;11.83;;;10.63;;
14348;SDS011;7258;50.376;8.742;2022-11-15T01:28:23;15.10;;;10.93;;
14348;SDS011;7258;50.376;8.742;2022-11-15T01:30:28;14.30;;;11.00;;
14348;SDS011;7258;50.376;8.742;2022-11-15T01:32:31;12.40;;;11.10;;
14348;SDS011;7258;50.376;8.742;2022-11-15T01:34:34;11.73;;;10.53;;
14348;SDS011;7258;50.376;8.742;2022-11-15T01:36:37;12.27;;;9.80;;
14348;SDS011;7258;50.376;8.742;2022-11-15T01:38:40;12.50;;;10.77;;
14348;SDS011;7258;50.376;8.742;2022-11-15T01:40:43;14.00;;;10.67;;
14348;SDS011;7258;50.376;8.742;2022-11-15T01:42:46;11.67;;;10.23;;
14348;SDS011;7258;50.376;8.742;2022-11-15T01:44:49;15.00;;;10.23;;
14348;SDS011;7258;50.376;8.742;2022-11-15T01:46:54;12.93;;;10.13;;
14348;SDS011;7258;50.376;8.742;2022-11-15T01:48:58;13.37;;;10.63;;
14348;SDS011;7258;50.376;8.742;2022-11-15T01:51:04;11.87;;;10.67;;
14348;SDS011;7258;50.376;8.742;2022-11-15T01:53:10;11.43;;;10.23;;
14348;SDS011;7258;50.376;8.742;2022-11-15T01:55:14;12.60;;;10.20;;
14348;SDS011;7258;50.376;8.742;2022-11-15T01:57:20;11.83;;;10.40;;
14348;SDS011;7258;50.376;8.742;2022-11-15T01:59:23;14.03;;;10.33;;
14348;SDS011;7258;50.376;8.742;2022-11-15T02:01:26;11.63;;;10.17;;
14348;SDS011;7258;50.376;8.742;2022-11-15T02:03:33;14.63;;;10.53;;
14348;SDS011;7258;50.376;8.742;2022-11-15T02:05:40;10.90;;;9.73;;
14348;SDS011;7258;50.376;8.742;2022-11-15T02:07:45;10.77;;;9.67;;
14348;SDS011;7258;50.376;8.742;2022-11-15T02:09:48;11.50;;;10.00;;
14348;SDS011;7258;50.376;8.742;2022-11-15T02:11:52;10.60;;;9.50;;
14348;SDS011;7258;50.376;8.742;2022-11-15T02:13:58;12.23;;;9.40;;
14348;SDS011;7258;50.376;8.742;2022-11-15T02:16:04;13.07;;;9.43;;
14348;SDS011;7258;50.376;8.742;2022-11-15T02:18:16;10.47;;;9.37;;
14348;SDS011;7258;50.376;8.742;2022-11-15T02:20:33;11.07;;;9.77;;
14348;SDS011;7258;50.376;8.742;2022-11-15T02:22:46;12.13;;;9.53;;
14348;SDS011;7258;50.376;8.742;2022-11-15T02:25:09;11.50;;;9.40;;
14348;SDS011;7258;50.376;8.742;2022-11-15T02:30:24;10.43;;;9.33;;
14348;SDS011;7258;50.376;8.742;2022-11-15T02:32:33;10.33;;;9.33;;
14348;SDS011;7258;50.376;8.742;2022-11-15T02:34:43;12.30;;;9.13;;
14348;SDS011;7258;50.376;8.742;2022-11-15T02:36:59;11.30;;;9.00;;
14348;SDS011;7258;50.376;8.742;2022-11-15T02:39:07;12.13;;;8.80;;
14348;SDS011;7258;50.376;8.742;2022-11-15T02:41:16;11.10;;;10.00;;
14348;SDS011;7258;50.376;8.742;2022-11-15T02:43:27;10.83;;;9.20;;
14348;SDS011;7258;50.376;8.742;2022-11-15T02:45:53;12.47;;;9.73;;
14348;SDS011;7258;50.376;8.742;2022-11-15T02:48:03;10.87;;;9.57;;
14348;SDS011;7258;50.376;8.742;2022-11-15T02:50:08;11.73;;;9.50;;
14348;SDS011;7258;50.376;8.742;2022-11-15T02:52:14;13.10;;;9.27;;
14348;SDS011;7258;50.376;8.742;2022-11-15T02:54:19;10.90;;;9.80;;
14348;SDS011;7258;50.376;8.742;2022-11-15T02:56:24;11.17;;;9.30;;
14348;SDS011;7258;50.376;8.742;2022-11-15T02:58:43;11.40;;;9.30;;
14348;SDS011;7258;50.376;8.742;2022-11-15T03:00:59;9.90;;;8.60;;
14348;SDS011;7258;50.376;8.742;2022-11-15T03:03:13;10.37;;;9.10;;
14348;SDS011;7258;50.376;8.742;2022-11-15T03:05:34;9.77;;;8.83;;
14348;SDS011;7258;50.376;8.742;2022-11-15T03:07:44;10.53;;;9.43;;
14348;SDS011;7258;50.376;8.742;2022-11-15T03:10:04;12.37;;;9.10;;
14348;SDS011;7258;50.376;8.742;2022-11-15T03:12:11;9.40;;;8.30;;
14348;SDS011;7258;50.376;8.742;2022-11-15T03:14:20;11.53;;;8.57;;
14348;SDS011;7258;50.376;8.742;2022-11-15T03:16:27;10.67;;;8.30;;
14348;SDS011;7258;50.376;8.742;2022-11-15T03:18:36;9.23;;;7.93;;
14348;SDS011;7258;50.376;8.742;2022-11-15T03:20:43;9.27;;;8.37;;
14348;SDS011;7258;50.376;8.742;2022-11-15T03:22:48;8.93;;;7.80;;
14348;SDS011;7258;50.376;8.742;2022-11-15T03:24:53;12.37;;;7.97;;
14348;SDS011;7258;50.376;8.742;2022-11-15T03:26:58;9.93;;;7.77;;
14348;SDS011;7258;50.376;8.742;2022-11-15T03:29:04;10.13;;;8.43;;
14348;SDS011;7258;50.376;8.742;2022-11-15T03:31:12;9.93;;;7.20;;
14348;SDS011;7258;50.376;8.742;2022-11-15T03:33:36;8.07;;;7.27;;
14348;SDS011;7258;50.376;8.742;2022-11-15T03:35:40;8.00;;;6.80;;
14348;SDS011;7258;50.376;8.742;2022-11-15T03:37:48;8.57;;;7.70;;
14348;SDS011;7258;50.376;8.742;2022-11-15T03:39:53;10.13;;;7.40;;
14348;SDS011;7258;50.376;8.742;2022-11-15T03:41:57;8.73;;;7.57;;
14348;SDS011;7258;50.376;8.742;2022-11-15T03:44:09;8.17;;;7.10;;
14348;SDS011;7258;50.376;8.742;2022-11-15T03:46:19;10.13;;;7.87;;
14348;SDS011;7258;50.376;8.742;2022-11-15T03:48:29;9.20;;;7.83;;
14348;SDS011;7258;50.376;8.742;2022-11-15T03:50:37;8.00;;;7.30;;
14348;SDS011;7258;50.376;8.742;2022-11-15T03:52:40;7.70;;;6.87;;
14348;SDS011;7258;50.376;8.742;2022-11-15T03:54:47;8.73;;;7.20;;
14348;SDS011;7258;50.376;8.742;2022-11-15T03:56:51;8.80;;;7.90;;
14348;SDS011;7258;50.376;8.742;2022-11-15T03:58:53;7.93;;;7.20;;
14348;SDS011;7258;50.376;8.742;2022-11-15T04:00:56;8.47;;;7.57;;
14348;SDS011;7258;50.376;8.742;2022-11-15T04:03:00;8.33;;;7.43;;
14348;SDS011;7258;50.376;8.742;2022-11-15T04:05:03;7.43;;;6.70;;
14348;SDS011;7258;50.376;8.742;2022-11-15T04:07:08;8.33;;;6.60;;
14348;SDS011;7258;50.376;8.742;2022-11-15T04:09:11;8.20;;;7.27;;
14348;SDS011;7258;50.376;8.742;2022-11-15T04:11:13;8.73;;;7.00;;
14348;SDS011;7258;50.376;8.742;2022-11-15T04:13:17;7.23;;;6.53;;
14348;SDS011;7258;50.376;8.742;2022-11-15T04:15:21;8.00;;;7.30;;
14348;SDS011;7258;50.376;8.742;2022-11-15T04:17:25;7.10;;;6.40;;
14348;SDS011;7258;50.376;8.742;2022-11-15T04:19:28;8.00;;;7.13;;
14348;SDS011;7258;50.376;8.742;2022-11-15T04:21:48;8.50;;;7.10;;
14348;SDS011;7258;50.376;8.742;2022-11-15T04:24:10;7.77;;;7.00;;
14348;SDS011;7258;50.376;8.742;2022-11-15T04:26:17;7.77;;;7.03;;
14348;SDS011;7258;50.376;8.742;2022-11-15T04:28:21;7.57;;;6.73;;
14348;SDS011;7258;50.376;8.742;2022-11-15T04:30:24;7.50;;;6.70;;
14348;SDS011;7258;50.376;8.742;2022-11-15T04:32:26;11.67;;;7.03;;
14348;SDS011;7258;50.376;8.742;2022-11-15T04:34:29;6.93;;;6.13;;
14348;SDS011;7258;50.376;8.742;2022-11-15T04:36:32;6.97;;;6.37;;
14348;SDS011;7258;50.376;8.742;2022-11-15T04:38:52;7.23;;;6.53;;
14348;SDS011;7258;50.376;8.742;2022-11-15T04:40:56;7.63;;;6.80;;
14348;SDS011;7258;50.376;8.742;2022-11-15T04:42:59;7.73;;;6.93;;
14348;SDS011;7258;50.376;8.742;2022-11-15T04:45:04;10.87;;;7.30;;
14348;SDS011;7258;50.376;8.742;2022-11-15T04:47:07;8.03;;;7.17;;
14348;SDS011;7258;50.376;8.742;2022-11-15T04:49:10;8.97;;;6.67;;
14348;SDS011;7258;50.376;8.742;2022-11-15T04:51:13;8.03;;;7.23;;
14348;SDS011;7258;50.376;8.742;2022-11-15T04:53:16;11.80;;;8.23;;
14348;SDS011;7258;50.376;8.742;2022-11-15T04:55:19;10.40;;;7.10;;
14348;SDS011;7258;50.376;8.742;2022-11-15T04:57:23;9.07;;;6.97;;
14348;SDS011;7258;50.376;8.742;2022-11-15T04:59:26;8.43;;;7.20;;
14348;SDS011;7258;50.376;8.742;2022-11-15T05:01:28;7.87;;;6.97;;
14348;SDS011;7258;50.376;8.742;2022-11-15T05:03:31;8.40;;;7.27;;
14348;SDS011;7258;50.376;8.742;2022-11-15T05:05:52;10.07;;;7.47;;
14348;SDS011;7258;50.376;8.742;2022-11-15T05:07:54;8.60;;;7.37;;
14348;SDS011;7258;50.376;8.742;2022-11-15T05:09:57;8.47;;;7.67;;
14348;SDS011;7258;50.376;8.742;2022-11-15T05:12:00;9.67;;;8.33;;
14348;SDS011;7258;50.376;8.742;2022-11-15T05:14:04;10.33;;;7.70;;
14348;SDS011;7258;50.376;8.742;2022-11-15T05:16:07;9.20;;;8.30;;
14348;SDS011;7258;50.376;8.742;2022-11-15T05:18:10;8.93;;;7.50;;
14348;SDS011;7258;50.376;8.742;2022-11-15T05:20:13;9.63;;;7.67;;
14348;SDS011;7258;50.376;8.742;2022-11-15T05:22:16;10.37;;;8.57;;
14348;SDS011;7258;50.376;8.742;2022-11-15T05:24:20;10.07;;;8.17;;
14348;SDS011;7258;50.376;8.742;2022-11-15T05:26:22;8.97;;;8.07;;
14348;SDS011;7258;50.376;8.742;2022-11-15T05:28:25;9.73;;;8.60;;
14348;SDS011;7258;50.376;8.742;2022-11-15T05:30:30;9.20;;;8.07;;
14348;SDS011;7258;50.376;8.742;2022-11-15T05:32:33;12.57;;;8.53;;
14348;SDS011;7258;50.376;8.742;2022-11-15T05:34:36;9.53;;;8.63;;
14348;SDS011;7258;50.376;8.742;2022-11-15T05:36:40;10.57;;;8.07;;
14348;SDS011;7258;50.376;8.742;2022-11-15T05:38:45;11.03;;;9.20;;
14348;SDS011;7258;50.376;8.742;2022-11-15T05:40:49;10.80;;;8.60;;
14348;SDS011;7258;50.376;8.742;2022-11-15T05:42:51;12.23;;;9.10;;
14348;SDS011;7258;50.376;8.742;2022-11-15T05:44:54;11.10;;;9.03;;
14348;SDS011;7258;50.376;8.742;2022-11-15T05:47:01;10.57;;;9.20;;
14348;SDS011;7258;50.376;8.742;2022-11-15T05:49:07;11.97;;;9.97;;
14348;SDS011;7258;50.376;8.742;2022-11-15T05:51:13;11.47;;;9.90;;
14348;SDS011;7258;50.376;8.742;2022-11-15T05:53:19;9.97;;;8.93;;
14348;SDS011;7258;50.376;8.742;2022-11-15T05:55:25;12.73;;;8.97;;
14348;SDS011;7258;50.376;8.742;2022-11-15T05:57:27;13.60;;;10.57;;
14348;SDS011;7258;50.376;8.742;2022-11-15T05:59:30;12.20;;;10.17;;
14348;SDS011;7258;50.376;8.742;2022-11-15T06:01:34;16.70;;;11.43;;
14348;SDS011;7258;50.376;8.742;2022-11-15T06:03:39;13.87;;;11.43;;
14348;SDS011;7258;50.376;8.742;2022-11-15T06:05:41;13.00;;;10.43;;
14348;SDS011;7258;50.376;8.742;2022-11-15T06:07:44;12.03;;;9.90;;
14348;SDS011;7258;50.376;8.742;2022-11-15T06:09:47;13.53;;;11.57;;
14348;SDS011;7258;50.376;8.742;2022-11-15T06:11:50;13.33;;;10.30;;
14348;SDS011;7258;50.376;8.742;2022-11-15T06:13:52;13.57;;;10.30;;
14348;SDS011;7258;50.376;8.742;2022-11-15T06:15:55;13.90;;;10.70;;
14348;SDS011;7258;50.376;8.742;2022-11-15T06:17:58;12.87;;;11.53;;
14348;SDS011;7258;50.376;8.742;2022-11-15T06:20:03;13.03;;;11.00;;
14348;SDS011;7258;50.376;8.742;2022-11-15T06:22:06;13.93;;;11.20;;
14348;SDS011;7258;50.376;8.742;2022-11-15T06:24:10;14.33;;;11.10;;
14348;SDS011;7258;50.376;8.742;2022-11-15T06:26:13;13.63;;;11.13;;
14348;SDS011;7258;50.376;8.742;2022-11-15T06:28:15;12.83;;;11.53;;
14348;SDS011;7258;50.376;8.742;2022-11-15T06:30:18;13.00;;;11.50;;
14348;SDS011;7258;50.376;8.742;2022-11-15T06:32:21;15.27;;;11.67;;
14348;SDS011;7258;50.376;8.742;2022-11-15T06:34:24;15.60;;;12.03;;
14348;SDS011;7258;50.376;8.742;2022-11-15T06:36:28;13.97;;;12.17;;
14348;SDS011;7258;50.376;8.742;2022-11-15T06:38:31;15.77;;;12.67;;
14348;SDS011;7258;50.376;8.742;2022-11-15T06:40:34;17.60;;;13.97;;
14348;SDS011;7258;50.376;8.742;2022-11-15T06:42:38;15.33;;;13.17;;
14348;SDS011;7258;50.376;8.742;2022-11-15T06:44:41;15.97;;;13.60;;
14348;SDS011;7258;50.376;8.742;2022-11-15T06:46:43;14.90;;;13.40;;
14348;SDS011;7258;50.376;8.742;2022-11-15T06:48:46;15.83;;;12.93;;
14348;SDS011;7258;50.376;8.742;2022-11-15T06:50:50;14.53;;;13.03;;
14348;SDS011;7258;50.376;8.742;2022-11-15T06:52:55;15.27;;;13.67;;
14348;SDS011;7258;50.376;8.742;2022-11-15T06:55:03;16.10;;;12.77;;
14348;SDS011;7258;50.376;8.742;2022-11-15T06:57:06;15.93;;;12.63;;
14348;SDS011;7258;50.376;8.742;2022-11-15T06:59:09;13.90;;;12.37;;
14348;SDS011;7258;50.376;8.742;2022-11-15T07:01:12;17.43;;;13.10;;
14348;SDS011;7258;50.376;8.742;2022-11-15T07:03:15;14.00;;;12.53;;
14348;SDS011;7258;50.376;8.742;2022-11-15T07:05:17;18.67;;;13.60;;
14348;SDS011;7258;50.376;8.742;2022-11-15T07:07:20;15.50;;;13.90;;
14348;SDS011;7258;50.376;8.742;2022-11-15T07:09:25;15.27;;;12.67;;
14348;SDS011;7258;50.376;8.742;2022-11-15T07:11:27;13.10;;;11.70;;
14348;SDS011;7258;50.376;8.742;2022-11-15T07:13:31;12.80;;;11.50;;
14348;SDS011;7258;50.376;8.742;2022-11-15T07:15:36;13.77;;;11.23;;
14348;SDS011;7258;50.376;8.742;2022-11-15T07:17:38;12.60;;;11.20;;
14348;SDS011;7258;50.376;8.742;2022-11-15T07:19:41;12.30;;;11.00;;
14348;SDS011;7258;50.376;8.742;2022-11-15T07:21:44;15.63;;;10.70;;
14348;SDS011;7258;50.376;8.742;2022-11-15T07:23:47;13.47;;;11.20;;
14348;SDS011;7258;50.376;8.742;2022-11-15T07:25:51;12.50;;;10.70;;
14348;SDS011;7258;50.376;8.742;2022-11-15T07:27:54;13.33;;;10.80;;
14348;SDS011;7258;50.376;8.742;2022-11-15T07:29:57;13.57;;;9.90;;
14348;SDS011;7258;50.376;8.742;2022-11-15T07:32:00;11.70;;;10.40;;
14348;SDS011;7258;50.376;8.742;2022-11-15T07:34:03;11.03;;;9.93;;
14348;SDS011;7258;50.376;8.742;2022-11-15T07:36:06;11.77;;;9.40;;
14348;SDS011;7258;50.376;8.742;2022-11-15T07:38:10;12.00;;;10.00;;
14348;SDS011;7258;50.376;8.742;2022-11-15T07:40:13;12.50;;;9.60;;
14348;SDS011;7258;50.376;8.742;2022-11-15T07:42:17;13.77;;;9.83;;
14348;SDS011;7258;50.376;8.742;2022-11-15T07:44:37;10.63;;;9.53;;
14348;SDS011;7258;50.376;8.742;2022-11-15T07:46:40;12.80;;;9.47;;
14348;SDS011;7258;50.376;8.742;2022-11-15T07:48:43;10.03;;;9.03;;
14348;SDS011;7258;50.376;8.742;2022-11-15T07:50:46;10.47;;;9.27;;
14348;SDS011;7258;50.376;8.742;2022-11-15T07:52:52;9.60;;;8.70;;
14348;SDS011;7258;50.376;8.742;2022-11-15T07:54:56;9.80;;;8.30;;
14348;SDS011;7258;50.376;8.742;2022-11-15T07:56:59;9.77;;;7.73;;
14348;SDS011;7258;50.376;8.742;2022-11-15T07:59:09;10.23;;;7.60;;
14348;SDS011;7258;50.376;8.742;2022-11-15T08:01:11;9.63;;;7.23;;
14348;SDS011;7258;50.376;8.742;2022-11-15T08:03:15;7.93;;;6.30;;
14348;SDS011;7258;50.376;8.742;2022-11-15T08:05:18;7.90;;;6.80;;
14348;SDS011;7258;50.376;8.742;2022-11-15T08:07:21;7.40;;;6.70;;
14348;SDS011;7258;50.376;8.742;2022-11-15T08:09:24;7.27;;;6.37;;
14348;SDS011;7258;50.376;8.742;2022-11-15T08:11:27;7.23;;;6.50;;
14348;SDS011;7258;50.376;8.742;2022-11-15T08:13:30;7.97;;;5.97;;
14348;SDS011;7258;50.376;8.742;2022-11-15T08:15:35;7.13;;;5.73;;
14348;SDS011;7258;50.376;8.742;2022-11-15T08:17:38;5.67;;;5.13;;
14348;SDS011;7258;50.376;8.742;2022-11-15T08:19:41;7.13;;;5.77;;
14348;SDS011;7258;50.376;8.742;2022-11-15T08:21:44;7.20;;;5.93;;
14348;SDS011;7258;50.376;8.742;2022-11-15T08:23:46;6.07;;;5.57;;
14348;SDS011;7258;50.376;8.742;2022-11-15T08:25:49;7.10;;;4.80;;
14348;SDS011;7258;50.376;8.742;2022-11-15T08:27:52;9.57;;;5.00;;
14348;SDS011;7258;50.376;8.742;2022-11-15T08:29:55;5.77;;;5.17;;
14348;SDS011;7258;50.376;8.742;2022-11-15T08:32:01;6.90;;;5.33;;
14348;SDS011;7258;50.376;8.742;2022-11-15T08:34:04;5.60;;;4.80;;
14348;SDS011;7258;50.376;8.742;2022-11-15T08:36:10;7.03;;;5.33;;
14348;SDS011;7258;50.376;8.742;2022-11-15T08:38:15;7.87;;;4.90;;
14348;SDS011;7258;50.376;8.742;2022-11-15T08:40:17;9.80;;;5.40;;
14348;SDS011;7258;50.376;8.742;2022-11-15T08:42:20;5.20;;;4.70;;
14348;SDS011;7258;50.376;8.742;2022-11-15T08:44:23;6.80;;;5.17;;
14348;SDS011;7258;50.376;8.742;2022-11-15T08:46:26;6.50;;;5.40;;
14348;SDS011;7258;50.376;8.742;2022-11-15T08:48:31;7.03;;;4.93;;
14348;SDS011;7258;50.376;8.742;2022-11-15T08:50:34;8.45;;;5.60;;
14348;SDS011;7258;50.376;8.742;2022-11-15T08:52:37;6.97;;;5.40;;
14348;SDS011;7258;50.376;8.742;2022-11-15T08:54:40;6.00;;;5.05;;
14348;SDS011;7258;50.376;8.742;2022-11-15T08:56:43;5.90;;;5.25;;
14348;SDS011;7258;50.376;8.742;2022-11-15T08:58:45;8.27;;;5.10;;
14348;SDS011;7258;50.376;8.742;2022-11-15T09:00:48;7.23;;;5.57;;
14348;SDS011;7258;50.376;8.742;2022-11-15T09:02:51;9.38;;;5.65;;
14348;SDS011;7258;50.376;8.742;2022-11-15T09:04:56;6.18;;;5.57;;
14348;SDS011;7258;50.376;8.742;2022-11-15T09:06:58;9.55;;;5.53;;
14348;SDS011;7258;50.376;8.742;2022-11-15T09:09:01;8.27;;;4.88;;
14348;SDS011;7258;50.376;8.742;2022-11-15T09:11:05;8.13;;;5.00;;
14348;SDS011;7258;50.376;8.742;2022-11-15T09:13:08;8.38;;;4.72;;
14348;SDS011;7258;50.376;8.742;2022-11-15T09:15:11;6.88;;;4.95;;
14348;SDS011;7258;50.376;8.742;2022-11-15T09:17:14;5.47;;;4.93;;
14348;SDS011;7258;50.376;8.742;2022-11-15T09:19:24;6.43;;;5.72;;
14348;SDS011;7258;50.376;8.742;2022-11-15T09:21:29;5.57;;;5.07;;
14348;SDS011;7258;50.376;8.742;2022-11-15T09:23:32;8.95;;;6.35;;
14348;SDS011;7258;50.376;8.742;2022-11-15T09:25:35;7.72;;;5.80;;
14348;SDS011;7258;50.376;8.742;2022-11-15T09:27:38;8.25;;;5.80;;
14348;SDS011;7258;50.376;8.742;2022-11-15T09:29:41;9.23;;;5.95;;
14348;SDS011;7258;50.376;8.742;2022-11-15T09:31:44;6.95;;;6.18;;
14348;SDS011;7258;50.376;8.742;2022-11-15T09:33:46;7.03;;;5.80;;
14348;SDS011;7258;50.376;8.742;2022-11-15T09:35:49;8.32;;;5.95;;
14348;SDS011;7258;50.376;8.742;2022-11-15T09:37:53;6.50;;;5.90;;
14348;SDS011;7258;50.376;8.742;2022-11-15T09:39:56;6.88;;;6.13;;
14348;SDS011;7258;50.376;8.742;2022-11-15T09:42:05;8.20;;;6.55;;
14348;SDS011;7258;50.376;8.742;2022-11-15T09:44:30;6.75;;;5.85;;
14348;SDS011;7258;50.376;8.742;2022-11-15T09:46:44;8.43;;;6.40;;
14348;SDS011;7258;50.376;8.742;2022-11-15T09:48:55;6.63;;;6.03;;
14348;SDS011;7258;50.376;8.742;2022-11-15T09:50:58;6.68;;;6.07;;
14348;SDS011;7258;50.376;8.742;2022-11-15T09:53:02;8.38;;;6.10;;
14348;SDS011;7258;50.376;8.742;2022-11-15T09:55:07;6.85;;;6.18;;
14348;SDS011;7258;50.376;8.742;2022-11-15T09:57:13;9.73;;;6.00;;
14348;SDS011;7258;50.376;8.742;2022-11-15T09:59:22;6.25;;;5.68;;
14348;SDS011;7258;50.376;8.742;2022-11-15T10:01:39;8.07;;;5.97;;
14348;SDS011;7258;50.376;8.742;2022-11-15T10:03:47;7.70;;;6.28;;
14348;SDS011;7258;50.376;8.742;2022-11-15T10:05:50;7.95;;;6.45;;
14348;SDS011;7258;50.376;8.742;2022-11-15T10:07:57;9.23;;;6.05;;
14348;SDS011;7258;50.376;8.742;2022-11-15T10:10:10;7.00;;;5.70;;
14348;SDS011;7258;50.376;8.742;2022-11-15T10:12:17;10.25;;;6.40;;
14348;SDS011;7258;50.376;8.742;2022-11-15T10:14:20;6.50;;;5.90;;
14348;SDS011;7258;50.376;8.742;2022-11-15T10:19:12;7.60;;;5.78;;
14348;SDS011;7258;50.376;8.742;2022-11-15T10:21:23;6.57;;;5.90;;
14348;SDS011;7258;50.376;8.742;2022-11-15T10:23:31;6.90;;;6.20;;
14348;SDS011;7258;50.376;8.742;2022-11-15T10:25:34;8.27;;;6.40;;
14348;SDS011;7258;50.376;8.742;2022-11-15T10:27:38;7.78;;;6.38;;
14348;SDS011;7258;50.376;8.742;2022-11-15T10:29:42;9.63;;;6.50;;
14348;SDS011;7258;50.376;8.742;2022-11-15T10:31:46;12.63;;;7.28;;
14348;SDS011;7258;50.376;8.742;2022-11-15T10:33:49;7.35;;;6.00;;
14348;SDS011;7258;50.376;8.742;2022-11-15T10:38:17;9.32;;;6.82;;
14348;SDS011;7258;50.376;8.742;2022-11-15T10:40:22;7.93;;;6.85;;
14348;SDS011;7258;50.376;8.742;2022-11-15T10:42:26;10.27;;;6.50;;
14348;SDS011;7258;50.376;8.742;2022-11-15T10:44:30;9.50;;;6.70;;
14348;SDS011;7258;50.376;8.742;2022-11-15T10:46:34;7.45;;;6.70;;
14348;SDS011;7258;50.376;8.742;2022-11-15T10:48:48;8.73;;;6.80;;
14348;SDS011;7258;50.376;8.742;2022-11-15T10:50:51;12.98;;;6.95;;
14348;SDS011;7258;50.376;8.742;2022-11-15T10:52:55;8.55;;;6.68;;
14348;SDS011;7258;50.376;8.742;2022-11-15T10:54:59;8.07;;;6.93;;
14348;SDS011;7258;50.376;8.742;2022-11-15T10:57:07;9.60;;;7.15;;
14348;SDS011;7258;50.376;8.742;2022-11-15T10:59:15;7.07;;;6.38;;
14348;SDS011;7258;50.376;8.742;2022-11-15T11:01:25;10.23;;;6.80;;
14348;SDS011;7258;50.376;8.742;2022-11-15T11:03:32;12.30;;;6.97;;
14348;SDS011;7258;50.376;8.742;2022-11-15T11:05:39;8.35;;;6.70;;
14348;SDS011;7258;50.376;8.742;2022-11-15T11:07:43;7.97;;;6.35;;
14348;SDS011;7258;50.376;8.742;2022-11-15T11:09:59;9.43;;;6.65;;
14348;SDS011;7258;50.376;8.742;2022-11-15T11:12:28;8.90;;;6.63;;
14348;SDS011;7258;50.376;8.742;2022-11-15T11:14:34;10.32;;;7.18;;
14348;SDS011;7258;50.376;8.742;2022-11-15T11:16:41;7.13;;;6.43;;
14348;SDS011;7258;50.376;8.742;2022-11-15T11:18:48;8.35;;;6.97;;
14348;SDS011;7258;50.376;8.742;2022-11-15T11:20:59;11.00;;;7.60;;
14348;SDS011;7258;50.376;8.742;2022-11-15T11:23:14;9.30;;;7.45;;
14348;SDS011;7258;50.376;8.742;2022-11-15T11:25:27;8.05;;;7.18;;
14348;SDS011;7258;50.376;8.742;2022-11-15T11:27:39;8.00;;;7.20;;
14348;SDS011;7258;50.376;8.742;2022-11-15T11:32:16;10.10;;;7.35;;
14348;SDS011;7258;50.376;8.742;2022-11-15T11:34:36;7.70;;;6.88;;
14348;SDS011;7258;50.376;8.742;2022-11-15T11:36:50;9.23;;;7.70;;
14348;SDS011;7258;50.376;8.742;2022-11-15T11:39:08;11.05;;;7.57;;
14348;SDS011;7258;50.376;8.742;2022-11-15T11:41:24;10.88;;;7.32;;
14348;SDS011;7258;50.376;8.742;2022-11-15T11:43:44;10.85;;;7.60;;
14348;SDS011;7258;50.376;8.742;2022-11-15T11:46:04;7.90;;;7.10;;
14348;SDS011;7258;50.376;8.742;2022-11-15T11:48:20;9.57;;;7.40;;
14348;SDS011;7258;50.376;8.742;2022-11-15T11:50:33;8.20;;;6.68;;
14348;SDS011;7258;50.376;8.742;2022-11-15T11:52:41;10.38;;;7.20;;
14348;SDS011;7258;50.376;8.742;2022-11-15T11:54:53;8.20;;;6.82;;
14348;SDS011;7258;50.376;8.742;2022-11-15T11:57:02;7.60;;;6.85;;
14348;SDS011;7258;50.376;8.742;2022-11-15T11:59:12;7.38;;;6.60;;
14348;SDS011;7258;50.376;8.742;2022-11-15T12:01:29;7.63;;;6.90;;
14348;SDS011;7258;50.376;8.742;2022-11-15T12:03:39;8.77;;;6.32;;
14348;SDS011;7258;50.376;8.742;2022-11-15T12:05:46;8.05;;;6.07;;
14348;SDS011;7258;50.376;8.742;2022-11-15T12:07:53;6.85;;;6.18;;
14348;SDS011;7258;50.376;8.742;2022-11-15T12:10:07;7.45;;;5.78;;
14348;SDS011;7258;50.376;8.742;2022-11-15T12:12:18;7.30;;;5.70;;
14348;SDS011;7258;50.376;8.742;2022-11-15T12:14:29;9.52;;;6.05;;
14348;SDS011;7258;50.376;8.742;2022-11-15T12:16:36;6.85;;;5.65;;
14348;SDS011;7258;50.376;8.742;2022-11-15T12:18:46;6.88;;;5.57;;
14348;SDS011;7258;50.376;8.742;2022-11-15T12:20:52;8.77;;;5.50;;
14348;SDS011;7258;50.376;8.742;2022-11-15T12:23:01;7.18;;;5.93;;
14348;SDS011;7258;50.376;8.742;2022-11-15T12:25:13;6.68;;;5.90;;
14348;SDS011;7258;50.376;8.742;2022-11-15T12:27:19;7.20;;;5.60;;
14348;SDS011;7258;50.376;8.742;2022-11-15T12:29:31;7.22;;;5.40;;
14348;SDS011;7258;50.376;8.742;2022-11-15T12:31:40;6.38;;;5.80;;
14348;SDS011;7258;50.376;8.742;2022-11-15T12:33:46;7.78;;;5.50;;
14348;SDS011;7258;50.376;8.742;2022-11-15T12:35:57;7.22;;;5.25;;
14348;SDS011;7258;50.376;8.742;2022-11-15T12:38:02;6.22;;;5.03;;
14348;SDS011;7258;50.376;8.742;2022-11-15T12:40:16;9.13;;;5.75;;
14348;SDS011;7258;50.376;8.742;2022-11-15T12:42:40;9.48;;;5.68;;
14348;SDS011;7258;50.376;8.742;2022-11-15T12:44:57;7.72;;;5.38;;
14348;SDS011;7258;50.376;8.742;2022-11-15T12:47:02;7.32;;;5.70;;
14348;SDS011;7258;50.376;8.742;2022-11-15T12:49:09;6.15;;;5.40;;
14348;SDS011;7258;50.376;8.742;2022-11-15T12:51:13;7.63;;;5.22;;
14348;SDS011;7258;50.376;8.742;2022-11-15T12:55:39;5.88;;;5.38;;